createdAt,value
2022-09-06T01:44:26.768Z,58.86
2022-09-06T01:47:01.882Z,58.75
2022-09-06T01:49:44.898Z,59.02
2022-09-06T01:52:21.576Z,59.09
2022-09-06T01:55:07.160Z,59.19
2022-09-06T04:12:40.698Z,60.45
2022-09-06T08:22:26.722Z,65.50
2022-09-06T08:24:56.283Z,65.38
2022-09-06T08:27:41.718Z,65.80
2022-09-06T08:30:26.799Z,65.81
2022-09-06T08:33:01.918Z,66.00
2022-09-06T08:35:38.041Z,65.42
2022-09-06T08:38:15.137Z,65.61
2022-09-06T08:40:46.061Z,65.78
2022-09-06T09:53:11.149Z,41.69
2022-09-06T09:55:39.958Z,40.91
2022-09-06T09:58:17.742Z,39.53
2022-09-06T10:00:45.454Z,39.66
2022-09-06T10:03:14.797Z,40.43
2022-09-06T10:06:02.054Z,40.20
2022-09-06T10:08:34.914Z,40.37
2022-09-06T10:11:02.616Z,40.98
2022-09-06T10:13:31.297Z,41.47
2022-09-06T10:16:03.113Z,42.43
2022-09-06T10:18:33.013Z,43.65
2022-09-06T10:21:02.885Z,44.02
2022-09-06T10:26:33.567Z,45.67
2022-09-06T10:29:06.865Z,45.25
2022-09-06T10:31:50.072Z,44.19
2022-09-06T10:34:59.904Z,43.07
2022-09-06T10:37:42.626Z,42.34
2022-09-06T10:40:13.285Z,42.69
2022-09-06T10:42:46.699Z,43.09
2022-09-06T10:45:28.328Z,43.59
2022-09-06T11:39:13.883Z,39.01
2022-09-06T11:41:49.599Z,40.89
2022-09-06T11:47:09.321Z,40.50
2022-09-06T11:49:41.317Z,39.86
2022-09-06T11:52:46.233Z,40.09
2022-09-06T12:02:23.994Z,39.02
2022-09-06T12:05:35.534Z,39.49
2022-09-06T12:11:59.031Z,39.54
2022-09-06T12:15:03.002Z,39.21
2022-09-06T12:17:54.311Z,39.52
2022-09-06T12:21:26.299Z,39.79
2022-09-06T13:02:13.721Z,42.60
2022-09-06T13:04:45.416Z,40.53
2022-09-06T13:10:50.796Z,43.92
2022-09-06T13:16:07.652Z,44.08
2022-09-06T13:18:39.637Z,43.86
2022-09-06T13:21:08.617Z,42.87
2022-09-06T13:49:59.059Z,41.98
2022-09-06T13:52:28.175Z,41.68
2022-09-06T13:57:40.836Z,41.08
2022-09-06T14:00:12.825Z,41.53
2022-09-06T14:03:10.664Z,41.53
2022-09-06T14:05:40.005Z,41.79
2022-09-06T14:08:21.180Z,41.70
2022-09-06T14:10:49.799Z,41.79
2022-09-06T14:13:18.540Z,41.71
2022-09-06T14:15:47.365Z,41.11
2022-09-06T14:18:16.357Z,41.47
2022-09-06T14:20:53.363Z,41.62
2022-09-06T14:23:23.723Z,41.88
2022-09-06T14:25:57.264Z,41.77
2022-09-06T14:28:25.990Z,42.04
2022-09-06T14:30:54.305Z,41.98
2022-09-06T14:33:23.403Z,41.82
2022-09-06T14:35:52.669Z,41.55
2022-09-06T14:38:22.268Z,41.45
2022-09-06T14:40:50.553Z,40.97
2022-09-06T14:45:57.496Z,40.60
2022-09-06T15:37:55.256Z,41.52
2022-09-06T15:40:27.060Z,41.44
2022-09-06T15:42:55.031Z,42.40
2022-09-06T15:48:04.614Z,42.36
2022-09-06T15:50:50.315Z,42.22
2022-09-06T15:53:20.511Z,42.79
2022-09-06T15:55:56.154Z,42.47
2022-09-06T15:58:23.956Z,42.76
2022-09-06T16:01:02.184Z,42.87
2022-09-06T16:03:29.852Z,43.55
2022-09-06T16:08:56.298Z,43.61
2022-09-06T16:11:23.794Z,43.79
2022-09-06T16:13:51.598Z,44.07
2022-09-06T16:16:19.998Z,44.08
2022-09-06T16:18:48.029Z,44.40
2022-09-06T16:21:17.951Z,45.29
2022-09-06T16:23:50.350Z,45.08
2022-09-06T16:26:21.677Z,45.08
2022-09-06T16:28:50.755Z,45.11
2022-09-06T16:31:19.392Z,45.28
2022-09-06T16:33:48.737Z,45.10
2022-09-06T16:36:16.929Z,45.41
2022-09-06T16:38:44.807Z,45.34
2022-09-06T16:41:15.499Z,46.00
2022-09-06T16:43:44.726Z,46.64
2022-09-06T16:46:13.355Z,47.36
2022-09-06T16:48:41.556Z,47.04
2022-09-06T16:51:11.047Z,47.45
2022-09-06T16:53:41.065Z,48.94
2022-09-06T16:56:09.367Z,49.13
2022-09-06T16:58:36.889Z,49.30
2022-09-06T17:01:07.273Z,49.86
2022-09-06T17:03:36.187Z,49.82
2022-09-06T17:06:04.455Z,50.41
2022-09-06T17:08:32.867Z,50.40
2022-09-06T17:11:02.143Z,50.20
2022-09-06T17:13:30.554Z,50.46
2022-09-06T17:16:19.988Z,51.21
2022-09-06T17:18:53.687Z,51.82
2022-09-06T17:21:22.311Z,51.86
2022-09-06T17:23:50.467Z,51.97
2022-09-06T17:26:19.576Z,51.59
2022-09-06T17:28:47.094Z,51.78
2022-09-06T17:31:15.720Z,51.45
2022-09-06T17:33:43.292Z,51.12
2022-09-06T17:36:14.486Z,51.13
2022-09-06T17:38:43.131Z,51.25
2022-09-06T17:41:19.968Z,51.38
2022-09-06T17:43:48.596Z,51.41
2022-09-06T17:46:16.148Z,51.60
2022-09-06T17:48:44.070Z,51.65
2022-09-06T17:51:12.996Z,51.89
2022-09-06T17:53:41.113Z,51.90
2022-09-06T17:56:10.391Z,52.13
2022-09-06T17:58:38.962Z,52.32
2022-09-06T18:20:18.186Z,53.16
2022-09-06T18:22:45.739Z,53.51
2022-09-06T18:25:13.893Z,53.61
2022-09-06T20:14:21.266Z,63.02
2022-09-06T20:16:51.800Z,62.92
2022-09-06T20:19:19.884Z,62.97
2022-09-06T20:21:47.443Z,63.25
2022-09-06T20:24:15.045Z,63.08
2022-09-06T20:54:27.168Z,63.08
2022-09-06T20:57:03.440Z,63.33
2022-09-06T20:59:45.688Z,63.33
2022-09-06T21:02:16.260Z,62.76
2022-09-06T21:04:49.545Z,62.87
2022-09-06T21:07:17.705Z,62.91
2022-09-06T21:09:47.130Z,63.12
2022-09-06T21:12:15.203Z,62.95
2022-09-06T21:14:43.621Z,63.02
2022-09-06T21:17:11.593Z,63.16
2022-09-06T21:19:40.327Z,63.28
2022-09-06T21:22:10.683Z,63.35
2022-09-06T21:24:38.822Z,63.39
2022-09-06T21:27:12.227Z,63.47
2022-09-06T21:29:40.146Z,63.50
2022-09-06T21:32:08.017Z,63.34
2022-09-06T21:34:36.239Z,63.33
2022-09-06T21:37:04.163Z,63.43
2022-09-06T21:39:34.226Z,63.83
2022-09-06T21:42:02.011Z,63.89
2022-09-06T21:44:31.373Z,63.89
2022-09-06T21:47:01.385Z,63.46
2022-09-06T21:49:29.190Z,63.50
2022-09-06T21:51:57.492Z,63.27
2022-09-06T21:54:25.444Z,63.44
2022-09-06T21:56:53.598Z,63.44
2022-09-06T21:59:21.886Z,63.68
2022-09-06T22:01:53.138Z,63.60
2022-09-06T22:04:21.547Z,63.50
2022-09-06T22:06:49.660Z,63.52
2022-09-06T22:09:17.429Z,63.55
2022-09-06T22:11:46.053Z,63.67
2022-09-06T22:14:15.897Z,63.31
2022-09-06T22:16:44.125Z,63.00
2022-09-06T22:19:13.608Z,62.91
2022-09-06T22:21:41.507Z,62.69
2022-09-06T22:24:14.402Z,63.13
2022-09-06T22:26:42.705Z,62.79
2022-09-06T22:29:13.725Z,62.26
2022-09-06T22:31:42.111Z,61.98
2022-09-06T22:34:11.172Z,61.93
2022-09-06T22:36:40.991Z,62.41
2022-09-06T22:39:09.777Z,61.75
2022-09-06T22:41:38.121Z,62.01
2022-09-06T22:44:07.412Z,62.41
2022-09-06T22:46:35.863Z,63.89
2022-09-06T22:49:05.590Z,63.08
2022-09-06T22:51:33.847Z,63.10
2022-09-06T22:54:03.424Z,61.71
2022-09-06T22:56:31.626Z,62.13
2022-09-06T22:59:00.364Z,62.88
2022-09-06T23:01:28.649Z,61.46
2022-09-06T23:03:57.980Z,62.58
2022-09-06T23:06:26.280Z,61.58
2022-09-06T23:08:54.389Z,61.67
2022-09-06T23:11:24.059Z,61.35
2022-09-06T23:13:56.971Z,61.76
2022-09-06T23:16:26.199Z,61.96
2022-09-06T23:18:54.730Z,61.54
2022-09-06T23:21:24.475Z,60.20
2022-09-06T23:23:56.385Z,59.39
2022-09-06T23:26:28.910Z,58.90
2022-09-06T23:28:57.462Z,58.87
2022-09-06T23:31:28.023Z,58.95
2022-09-06T23:33:57.274Z,58.91
2022-09-06T23:36:25.679Z,58.93
2022-09-06T23:38:53.564Z,59.72
2022-09-06T23:41:21.753Z,58.89
2022-09-06T23:43:51.404Z,59.23
2022-09-06T23:46:19.435Z,59.09
2022-09-06T23:48:47.558Z,58.11
2022-09-06T23:51:15.520Z,57.90
2022-09-06T23:53:43.529Z,58.06
2022-09-06T23:56:11.410Z,58.21
2022-09-06T23:58:39.764Z,57.56
